Time;durP1;ratioP1;P1;durP2;ratioP2;P2;SDS_P1;SDS_P2;PMS_P1;PMS_P2;Temp;Humidity;BMP_temperature;BMP_pressure;BME280_temperature;BME280_humidity;BME280_pressure;Samples;Min_cycle;Max_cycle;Signal;HPM_P1;HPM_P2
2021/07/10 03:00:39;;;;;;;8.88;7.97;;;;;;;;;;10584063;22;20052;-85
2021/07/10 07:05:32;;;;;;;9.30;7.15;;;;;;;;;;10567243;28;20055;-82
2021/07/10 07:10:33;;;;;;;7.82;5.90;;;;;;;;;;10543288;28;20036;-87
2021/07/10 07:21:04;;;;;;;8.07;6.25;;;;;;;;;;10559243;28;20032;-87
2021/07/10 07:26:30;;;;;;;7.63;6.63;;;;;;;;;;10539704;28;20052;-87
2021/07/10 07:31:32;;;;;;;10.40;7.38;;;;;;;;;;10511976;28;20040;-87
2021/07/10 07:36:43;;;;;;;7.10;6.40;;;;;;;;;;10540314;28;20062;-85
2021/07/10 07:41:49;;;;;;;8.50;6.25;;;;;;;;;;10538337;28;20043;-87
2021/07/10 07:47:33;;;;;;;6.20;5.35;;;;;;;;;;10540895;28;20032;-87
2021/07/10 07:52:36;;;;;;;5.95;5.10;;;;;;;;;;10523057;28;20039;-87
2021/07/10 07:58:12;;;;;;;5.30;4.80;;;;;;;;;;10540782;28;20032;-88
2021/07/10 08:03:14;;;;;;;6.75;5.32;;;;;;;;;;10504696;28;20066;-87
2021/07/10 08:13:54;;;;;;;;;;;;;;;;;;10568503;28;20047;-86
2021/07/10 08:19:16;;;;;;;6.68;5.43;;;;;;;;;;10570355;28;19904;-86
2021/07/10 08:24:39;;;;;;;5.67;4.93;;;;;;;;;;10584967;28;20036;-87
2021/07/10 08:30:02;;;;;;;11.13;6.88;;;;;;;;;;10509233;28;20096;-87
2021/07/10 08:35:30;;;;;;;6.43;5.75;;;;;;;;;;10541494;28;20047;-87
2021/07/10 08:46:37;;;;;;;5.50;5.00;;;;;;;;;;10555753;28;20040;-87
2021/07/10 08:52:06;;;;;;;6.30;5.40;;;;;;;;;;10556279;28;20492;-87
2021/07/10 08:57:53;;;;;;;6.32;4.90;;;;;;;;;;10579110;28;20032;-87
2021/07/10 09:03:14;;;;;;;5.47;4.65;;;;;;;;;;10616488;22;20420;-85
2021/07/10 09:08:26;;;;;;;5.70;4.22;;;;;;;;;;10579910;28;20035;-85
2021/07/10 09:13:38;;;;;;;5.95;5.35;;;;;;;;;;10576346;28;20036;-84
2021/07/10 09:18:45;;;;;;;7.82;5.38;;;;;;;;;;10576790;28;20119;-86
2021/07/10 09:23:46;;;;;;;7.00;5.60;;;;;;;;;;10573996;28;20091;-85
2021/07/10 09:28:59;;;;;;;5.97;4.50;;;;;;;;;;10578688;28;20047;-86
2021/07/10 09:34:05;;;;;;;5.00;4.38;;;;;;;;;;10575517;28;20027;-84
2021/07/10 09:39:12;;;;;;;7.88;4.00;;;;;;;;;;10577583;28;20023;-83
2021/07/10 09:44:14;;;;;;;6.85;4.20;;;;;;;;;;10580374;28;20484;-84
2021/07/10 09:49:20;;;;;;;6.07;4.40;;;;;;;;;;10585447;28;20035;-83
2021/07/10 09:54:20;;;;;;;5.43;4.70;;;;;;;;;;10603817;28;20390;-86
2021/07/10 09:59:24;;;;;;;5.35;4.68;;;;;;;;;;10576177;28;20043;-85
2021/07/10 10:04:28;;;;;;;5.85;3.90;;;;;;;;;;10594729;28;20020;-87
2021/07/10 10:09:30;;;;;;;7.60;6.38;;;;;;;;;;10594966;28;20048;-86
2021/07/10 10:14:32;;;;;;;5.63;4.85;;;;;;;;;;10579636;28;20084;-85
2021/07/10 10:19:35;;;;;;;5.32;4.80;;;;;;;;;;10576928;28;20028;-85
2021/07/10 10:24:36;;;;;;;6.97;6.25;;;;;;;;;;10576089;28;20050;-85
2021/07/10 10:29:39;;;;;;;6.15;5.00;;;;;;;;;;10578488;28;20032;-86
2021/07/10 10:34:42;;;;;;;5.85;5.25;;;;;;;;;;10588017;28;20053;-85
2021/07/10 10:39:49;;;;;;;9.85;4.72;;;;;;;;;;10589083;28;20028;-86
2021/07/10 10:44:59;;;;;;;6.45;4.68;;;;;;;;;;10575453;28;20059;-86
2021/07/10 10:50:16;;;;;;;7.72;5.05;;;;;;;;;;10602232;28;20035;-85
2021/07/10 10:55:19;;;;;;;7.50;5.35;;;;;;;;;;10584804;28;20034;-87
2021/07/10 11:00:28;;;;;;;9.80;8.68;;;;;;;;;;10582037;28;20496;-84
2021/07/10 11:05:32;;;;;;;6.53;5.93;;;;;;;;;;10589745;28;20032;-84
2021/07/10 11:10:34;;;;;;;7.03;5.00;;;;;;;;;;10585871;28;20485;-85
2021/07/10 11:15:54;;;;;;;7.65;6.38;;;;;;;;;;10584017;28;20058;-83
2021/07/10 11:20:55;;;;;;;6.93;5.30;;;;;;;;;;10596839;28;20027;-84
2021/07/10 11:26:06;;;;;;;6.35;5.00;;;;;;;;;;10581918;28;20027;-83
2021/07/10 11:31:09;;;;;;;6.05;5.35;;;;;;;;;;10585271;28;20035;-83
2021/07/10 11:36:28;;;;;;;5.70;5.10;;;;;;;;;;10604836;28;20054;-84
2021/07/10 11:41:30;;;;;;;6.80;5.00;;;;;;;;;;10584352;28;20126;-83
2021/07/10 11:46:52;;;;;;;5.40;4.82;;;;;;;;;;10581218;28;20036;-84
2021/07/10 11:51:56;;;;;;;6.22;5.63;;;;;;;;;;10579098;28;20031;-88
2021/07/10 11:56:57;;;;;;;5.53;4.93;;;;;;;;;;10597812;28;20019;-88
2021/07/10 12:02:17;;;;;;;7.88;6.95;;;;;;;;;;10610153;28;20096;-84
2021/07/10 12:07:57;;;;;;;6.85;6.25;;;;;;;;;;10617377;28;20145;-85
2021/07/10 12:12:59;;;;;;;8.75;6.68;;;;;;;;;;10574710;28;20035;-86
2021/07/10 12:18:02;;;;;;;6.70;5.97;;;;;;;;;;10574758;28;20028;-85
2021/07/10 12:23:05;;;;;;;7.38;6.65;;;;;;;;;;10575006;28;20031;-84
2021/07/10 12:28:07;;;;;;;7.00;5.35;;;;;;;;;;10575252;28;20035;-84
2021/07/10 12:33:26;;;;;;;5.50;4.93;;;;;;;;;;10575543;28;20481;-85
2021/07/10 12:38:30;;;;;;;9.45;6.47;;;;;;;;;;10575802;28;20031;-84
2021/07/10 12:43:31;;;;;;;6.35;5.75;;;;;;;;;;10593015;28;20040;-85
2021/07/10 12:48:32;;;;;;;7.32;6.22;;;;;;;;;;10589855;28;20365;-85
2021/07/10 12:53:37;;;;;;;5.38;4.88;;;;;;;;;;10576226;28;20481;-85
2021/07/10 12:58:39;;;;;;;6.15;4.78;;;;;;;;;;10575042;28;20024;-85
2021/07/10 13:03:47;;;;;;;6.63;4.75;;;;;;;;;;10590166;28;20079;-86
2021/07/10 13:08:51;;;;;;;6.50;5.80;;;;;;;;;;10573817;28;20032;-85
2021/07/10 13:13:57;;;;;;;6.15;5.40;;;;;;;;;;10575744;28;20099;-86
2021/07/10 13:19:18;;;;;;;7.60;4.90;;;;;;;;;;10600540;28;20111;-85
2021/07/10 13:24:30;;;;;;;4.80;4.30;;;;;;;;;;10564145;28;20106;-86
2021/07/10 13:29:41;;;;;;;5.72;4.68;;;;;;;;;;10545138;28;20027;-86
2021/07/10 13:40:25;;;;;;;5.93;4.88;;;;;;;;;;10592638;28;20500;-85
2021/07/10 13:45:26;;;;;;;5.05;4.25;;;;;;;;;;10574684;28;20485;-85
2021/07/10 13:50:27;;;;;;;5.90;4.97;;;;;;;;;;10572873;28;20027;-85
2021/07/10 13:55:28;;;;;;;6.50;5.03;;;;;;;;;;10575718;28;20131;-86
2021/07/10 14:00:35;;;;;;;5.28;4.78;;;;;;;;;;10574050;28;20036;-86
2021/07/10 14:05:40;;;;;;;4.53;4.05;;;;;;;;;;10576643;28;20050;-85
2021/07/10 14:10:42;;;;;;;5.70;5.07;;;;;;;;;;10575387;28;20439;-86
2021/07/10 14:15:45;;;;;;;6.63;4.35;;;;;;;;;;10577442;28;20032;-86
2021/07/10 14:20:49;;;;;;;5.40;4.90;;;;;;;;;;10589711;28;20038;-84
2021/07/10 14:25:50;;;;;;;9.82;8.82;;;;;;;;;;10613448;28;20068;-87
2021/07/10 14:30:51;;;;;;;6.60;5.90;;;;;;;;;;10582965;28;20043;-85
2021/07/10 14:35:52;;;;;;;6.15;5.55;;;;;;;;;;10574056;28;20031;-85
2021/07/10 14:40:53;;;;;;;5.78;5.28;;;;;;;;;;10574017;28;20046;-85
2021/07/10 14:45:55;;;;;;;5.22;4.70;;;;;;;;;;10576334;28;20032;-85
2021/07/10 14:50:56;;;;;;;6.53;5.93;;;;;;;;;;10572010;28;20031;-84
2021/07/10 14:55:57;;;;;;;8.68;5.57;;;;;;;;;;10572139;28;20396;-85
2021/07/10 15:00:58;;;;;;;6.65;6.05;;;;;;;;;;10589307;22;20478;-84
2021/07/10 15:05:59;;;;;;;6.75;5.50;;;;;;;;;;10554709;28;20116;-84
2021/07/10 15:11:00;;;;;;;6.07;5.30;;;;;;;;;;10553381;28;20040;-85
2021/07/10 15:16:04;;;;;;;5.88;5.15;;;;;;;;;;10552020;28;20039;-88
2021/07/10 15:21:05;;;;;;;5.68;5.18;;;;;;;;;;10535592;28;20465;-88
2021/07/10 15:26:06;;;;;;;6.13;5.53;;;;;;;;;;10534407;28;20031;-88
2021/07/10 15:31:07;;;;;;;7.47;5.45;;;;;;;;;;10535541;28;20046;-88
2021/07/10 15:36:08;;;;;;;6.88;6.07;;;;;;;;;;10537866;28;20016;-89
2021/07/10 15:41:09;;;;;;;7.10;6.43;;;;;;;;;;10538050;28;20036;-88
2021/07/10 15:46:10;;;;;;;5.75;5.25;;;;;;;;;;10555580;28;20055;-88
2021/07/10 15:51:11;;;;;;;6.75;4.93;;;;;;;;;;10538181;28;20056;-88
2021/07/10 15:56:12;;;;;;;6.30;5.32;;;;;;;;;;10536577;28;20032;-88
2021/07/10 16:01:13;;;;;;;5.32;4.80;;;;;;;;;;10538442;28;20542;-88
2021/07/10 16:06:14;;;;;;;5.30;4.80;;;;;;;;;;10537867;28;20048;-88
2021/07/10 16:11:16;;;;;;;5.28;4.82;;;;;;;;;;10554726;28;20541;-88
2021/07/10 16:16:17;;;;;;;6.03;5.53;;;;;;;;;;10553717;28;20028;-88
2021/07/10 16:21:18;;;;;;;6.05;5.22;;;;;;;;;;10535622;28;20405;-88
2021/07/10 16:26:19;;;;;;;6.38;5.78;;;;;;;;;;10535139;28;20040;-88
2021/07/10 16:31:21;;;;;;;5.95;5.22;;;;;;;;;;10534927;28;20122;-88
2021/07/10 16:36:22;;;;;;;5.05;4.55;;;;;;;;;;10534561;28;20032;-88
2021/07/10 16:41:23;;;;;;;6.32;5.72;;;;;;;;;;10556516;28;20032;-88
2021/07/10 16:46:24;;;;;;;6.13;5.55;;;;;;;;;;10536365;28;20032;-88
2021/07/10 16:51:25;;;;;;;8.00;5.82;;;;;;;;;;10532247;28;20071;-89
2021/07/10 16:56:26;;;;;;;6.07;5.45;;;;;;;;;;10532476;28;20036;-88
2021/07/10 17:01:27;;;;;;;5.88;5.22;;;;;;;;;;10535689;28;20055;-88
2021/07/10 17:06:29;;;;;;;7.60;6.80;;;;;;;;;;10556158;28;20051;-89
2021/07/10 17:11:30;;;;;;;6.45;5.85;;;;;;;;;;10538972;28;20028;-88
2021/07/10 17:16:31;;;;;;;5.53;4.88;;;;;;;;;;10537304;28;20066;-88
2021/07/10 17:21:32;;;;;;;4.78;4.38;;;;;;;;;;10534229;28;20055;-88
2021/07/10 17:26:33;;;;;;;6.00;5.40;;;;;;;;;;10541661;28;20036;-88
2021/07/10 17:31:38;;;;;;;6.75;6.15;;;;;;;;;;10553246;28;20069;-87
2021/07/10 17:36:40;;;;;;;6.60;5.90;;;;;;;;;;10567506;28;20040;-88
2021/07/10 17:41:40;;;;;;;7.15;6.53;;;;;;;;;;10566996;28;20039;-87
2021/07/10 17:46:42;;;;;;;5.25;4.68;;;;;;;;;;10533855;28;20435;-88
2021/07/10 17:51:44;;;;;;;8.73;7.07;;;;;;;;;;10535091;28;20074;-88
2021/07/10 17:56:46;;;;;;;7.40;6.30;;;;;;;;;;10535048;28;20028;-88
2021/07/10 18:01:46;;;;;;;9.48;6.80;;;;;;;;;;10532986;28;20470;-87
2021/07/10 18:06:49;;;;;;;6.63;6.03;;;;;;;;;;10531236;28;20032;-88
2021/07/10 18:11:50;;;;;;;6.55;5.55;;;;;;;;;;10532675;28;20028;-88
2021/07/10 18:16:51;;;;;;;6.60;6.03;;;;;;;;;;10551716;28;20052;-88
2021/07/10 18:21:52;;;;;;;7.25;6.15;;;;;;;;;;10533351;28;20043;-88
2021/07/10 18:26:53;;;;;;;6.97;6.28;;;;;;;;;;10533952;28;20036;-88
2021/07/10 18:31:54;;;;;;;6.75;5.00;;;;;;;;;;10531973;28;20032;-88
2021/07/10 18:36:55;;;;;;;6.07;5.10;;;;;;;;;;10531983;28;20123;-88
2021/07/10 18:41:56;;;;;;;5.72;5.20;;;;;;;;;;10533428;28;20051;-88
2021/07/10 18:46:56;;;;;;;6.45;5.82;;;;;;;;;;10551471;28;20059;-88
2021/07/10 18:51:57;;;;;;;6.53;5.90;;;;;;;;;;10537139;28;20040;-88
2021/07/10 18:56:59;;;;;;;6.65;5.95;;;;;;;;;;10540525;28;20391;-88
2021/07/10 19:01:59;;;;;;;5.85;5.07;;;;;;;;;;10537156;28;20051;-88
2021/07/10 19:07:01;;;;;;;6.03;5.45;;;;;;;;;;10536297;28;20032;-88
2021/07/10 19:12:02;;;;;;;6.43;5.45;;;;;;;;;;10536700;28;20131;-88
2021/07/10 19:17:03;;;;;;;5.68;4.55;;;;;;;;;;10541039;28;20043;-87
2021/07/10 19:22:04;;;;;;;5.65;5.00;;;;;;;;;;10558681;28;20039;-86
2021/07/10 19:27:05;;;;;;;6.05;5.35;;;;;;;;;;10556935;28;20096;-85
2021/07/10 19:32:06;;;;;;;5.45;4.95;;;;;;;;;;10558209;28;20039;-85
2021/07/10 19:37:07;;;;;;;5.35;4.85;;;;;;;;;;10553860;28;20032;-85
2021/07/10 19:42:08;;;;;;;4.88;4.43;;;;;;;;;;10554608;28;20044;-86
2021/07/10 19:47:09;;;;;;;5.68;4.88;;;;;;;;;;10553318;28;20040;-85
2021/07/10 19:52:11;;;;;;;6.25;5.30;;;;;;;;;;10552052;28;20062;-85
2021/07/10 19:57:12;;;;;;;6.57;5.88;;;;;;;;;;10551343;28;20035;-85
2021/07/10 20:02:15;;;;;;;5.40;4.63;;;;;;;;;;10550203;28;20561;-85
2021/07/10 20:07:16;;;;;;;5.47;4.97;;;;;;;;;;10550909;28;20042;-85
2021/07/10 20:12:17;;;;;;;5.68;5.13;;;;;;;;;;10548621;28;20033;-84
2021/07/10 20:17:18;;;;;;;5.50;5.00;;;;;;;;;;10545760;28;20520;-85
2021/07/10 20:22:19;;;;;;;6.03;4.95;;;;;;;;;;10549410;28;20040;-85
2021/07/10 20:27:20;;;;;;;4.72;4.28;;;;;;;;;;10551849;28;20036;-86
2021/07/10 20:32:20;;;;;;;4.97;4.55;;;;;;;;;;10551229;28;20060;-85
2021/07/10 20:37:21;;;;;;;5.18;4.65;;;;;;;;;;10551821;28;20043;-85
2021/07/10 20:42:22;;;;;;;6.32;5.70;;;;;;;;;;10551541;28;20062;-85
2021/07/10 20:47:24;;;;;;;6.10;5.50;;;;;;;;;;10553720;28;20040;-86
2021/07/10 20:52:25;;;;;;;6.97;6.25;;;;;;;;;;10553090;28;20081;-85
2021/07/10 20:57:25;;;;;;;6.43;5.20;;;;;;;;;;10571883;28;20466;-85
2021/07/10 21:02:30;;;;;;;6.05;4.70;;;;;;;;;;10612118;22;20067;-86
2021/07/10 21:07:31;;;;;;;5.95;5.10;;;;;;;;;;10593478;28;20034;-85
2021/07/10 21:12:32;;;;;;;5.45;4.53;;;;;;;;;;10592254;28;20062;-86
2021/07/10 21:17:55;;;;;;;5.75;5.15;;;;;;;;;;10591457;28;20031;-85
2021/07/10 21:23:01;;;;;;;4.82;4.32;;;;;;;;;;10591387;28;20066;-85
2021/07/10 21:28:07;;;;;;;5.80;5.20;;;;;;;;;;10607720;28;20028;-85
2021/07/10 21:33:14;;;;;;;4.45;3.90;;;;;;;;;;10589666;28;20042;-85
2021/07/10 21:38:16;;;;;;;8.38;6.07;;;;;;;;;;10588650;28;20038;-86
2021/07/10 21:43:23;;;;;;;5.65;5.15;;;;;;;;;;10588984;28;20038;-86
2021/07/10 21:48:24;;;;;;;6.15;5.55;;;;;;;;;;10588854;28;20091;-86
2021/07/10 21:53:33;;;;;;;6.55;5.65;;;;;;;;;;10588692;28;20040;-86
2021/07/10 21:58:35;;;;;;;5.63;4.50;;;;;;;;;;10607099;28;20049;-86
2021/07/10 22:03:41;;;;;;;6.20;5.10;;;;;;;;;;10588981;28;20044;-85
2021/07/10 22:08:42;;;;;;;11.25;10.15;;;;;;;;;;10588162;28;20074;-85
2021/07/10 22:13:43;;;;;;;4.45;4.05;;;;;;;;;;10587898;28;20054;-85
2021/07/10 22:18:44;;;;;;;6.28;5.35;;;;;;;;;;10606774;28;20374;-85
2021/07/10 22:23:45;;;;;;;6.60;6.00;;;;;;;;;;10594036;28;20047;-86
2021/07/10 22:28:47;;;;;;;5.47;4.88;;;;;;;;;;10598668;28;20072;-85
2021/07/10 22:33:49;;;;;;;5.57;5.07;;;;;;;;;;10596277;28;20035;-86
2021/07/10 22:38:50;;;;;;;7.85;6.70;;;;;;;;;;10598973;28;20038;-86
2021/07/10 22:43:51;;;;;;;7.05;6.18;;;;;;;;;;10600336;28;20039;-86
2021/07/10 22:48:52;;;;;;;6.88;6.05;;;;;;;;;;10597078;28;20159;-86
2021/07/10 22:53:53;;;;;;;8.70;7.80;;;;;;;;;;10597491;28;20031;-85
2021/07/10 22:58:54;;;;;;;7.93;7.22;;;;;;;;;;10596866;28;20032;-85
2021/07/10 23:03:55;;;;;;;8.18;6.22;;;;;;;;;;10596986;28;20044;-86
2021/07/10 23:08:56;;;;;;;5.30;4.45;;;;;;;;;;10597429;28;20032;-85
2021/07/10 23:13:57;;;;;;;9.73;8.82;;;;;;;;;;10596634;28;20126;-85
2021/07/10 23:18:58;;;;;;;5.93;5.38;;;;;;;;;;10595049;28;20070;-85
2021/07/10 23:23:59;;;;;;;7.85;7.05;;;;;;;;;;10593315;28;20084;-85
2021/07/10 23:29:03;;;;;;;5.70;5.20;;;;;;;;;;10595901;28;20477;-85
2021/07/10 23:34:04;;;;;;;6.93;6.32;;;;;;;;;;10594026;28;20083;-85
2021/07/10 23:39:06;;;;;;;9.18;8.27;;;;;;;;;;10592749;28;20031;-86
2021/07/10 23:44:07;;;;;;;11.07;10.07;;;;;;;;;;10594611;28;20032;-85
2021/07/10 23:49:08;;;;;;;15.15;13.75;;;;;;;;;;10594193;28;20132;-84
2021/07/10 23:54:09;;;;;;;11.05;9.95;;;;;;;;;;10595268;28;20065;-85
2021/07/10 23:59:11;;;;;;;7.40;6.15;;;;;;;;;;10595147;28;20070;-84
